sensor_id;sensor_type;location;lat;lon;timestamp;temperature;humidity
25280;DHT22;13225;47.804;12.116;2023-03-23T00:01:16;10.70;99.90
25280;DHT22;13225;47.804;12.116;2023-03-23T00:03:46;10.60;99.90
25280;DHT22;13225;47.804;12.116;2023-03-23T00:06:12;10.60;99.90
25280;DHT22;13225;47.804;12.116;2023-03-23T00:08:44;10.70;99.90
25280;DHT22;13225;47.804;12.116;2023-03-23T00:11:14;10.60;99.90
25280;DHT22;13225;47.804;12.116;2023-03-23T00:13:42;10.70;99.90
25280;DHT22;13225;47.804;12.116;2023-03-23T00:16:09;10.60;99.90
25280;DHT22;13225;47.804;12.116;2023-03-23T00:18:50;10.60;99.90
25280;DHT22;13225;47.804;12.116;2023-03-23T00:21:23;10.50;99.90
25280;DHT22;13225;47.804;12.116;2023-03-23T00:23:53;10.50;99.90
25280;DHT22;13225;47.804;12.116;2023-03-23T00:26:19;10.50;99.90
25280;DHT22;13225;47.804;12.116;2023-03-23T00:28:45;10.50;99.90
25280;DHT22;13225;47.804;12.116;2023-03-23T00:31:12;10.60;99.90
25280;DHT22;13225;47.804;12.116;2023-03-23T00:33:39;10.60;99.90
25280;DHT22;13225;47.804;12.116;2023-03-23T00:36:08;10.50;99.90
25280;DHT22;13225;47.804;12.116;2023-03-23T00:38:34;10.40;99.90
25280;DHT22;13225;47.804;12.116;2023-03-23T00:41:00;10.40;99.90
25280;DHT22;13225;47.804;12.116;2023-03-23T00:43:30;10.50;99.90
25280;DHT22;13225;47.804;12.116;2023-03-23T00:45:56;10.50;99.90
25280;DHT22;13225;47.804;12.116;2023-03-23T00:48:23;10.50;99.90
25280;DHT22;13225;47.804;12.116;2023-03-23T00:50:50;10.50;99.90
25280;DHT22;13225;47.804;12.116;2023-03-23T00:53:17;10.50;99.90
25280;DHT22;13225;47.804;12.116;2023-03-23T00:55:45;10.40;99.90
25280;DHT22;13225;47.804;12.116;2023-03-23T00:58:12;10.50;99.90
25280;DHT22;13225;47.804;12.116;2023-03-23T01:00:38;10.50;99.90
25280;DHT22;13225;47.804;12.116;2023-03-23T01:03:05;10.40;99.90
25280;DHT22;13225;47.804;12.116;2023-03-23T01:05:34;10.40;99.90
25280;DHT22;13225;47.804;12.116;2023-03-23T01:08:00;10.40;99.90
25280;DHT22;13225;47.804;12.116;2023-03-23T01:10:27;10.40;99.90
25280;DHT22;13225;47.804;12.116;2023-03-23T01:12:53;10.30;99.90
25280;DHT22;13225;47.804;12.116;2023-03-23T01:15:20;10.30;99.90
25280;DHT22;13225;47.804;12.116;2023-03-23T01:17:46;10.30;99.90
25280;DHT22;13225;47.804;12.116;2023-03-23T01:20:13;10.30;99.90
25280;DHT22;13225;47.804;12.116;2023-03-23T01:22:41;10.30;99.90
25280;DHT22;13225;47.804;12.116;2023-03-23T01:25:08;10.30;99.90
25280;DHT22;13225;47.804;12.116;2023-03-23T01:27:34;10.30;99.90
25280;DHT22;13225;47.804;12.116;2023-03-23T01:30:00;10.30;99.90
25280;DHT22;13225;47.804;12.116;2023-03-23T01:32:26;10.30;99.90
25280;DHT22;13225;47.804;12.116;2023-03-23T01:34:52;10.20;99.90
25280;DHT22;13225;47.804;12.116;2023-03-23T01:37:17;10.20;99.90
25280;DHT22;13225;47.804;12.116;2023-03-23T01:39:45;10.10;99.90
25280;DHT22;13225;47.804;12.116;2023-03-23T01:42:11;10.10;99.90
25280;DHT22;13225;47.804;12.116;2023-03-23T01:47:03;10.10;99.90
25280;DHT22;13225;47.804;12.116;2023-03-23T01:49:35;10.10;99.90
25280;DHT22;13225;47.804;12.116;2023-03-23T01:52:09;10.00;99.90
25280;DHT22;13225;47.804;12.116;2023-03-23T01:54:39;10.10;99.90
25280;DHT22;13225;47.804;12.116;2023-03-23T01:57:15;10.00;99.90
25280;DHT22;13225;47.804;12.116;2023-03-23T01:59:44;10.10;99.90
25280;DHT22;13225;47.804;12.116;2023-03-23T02:02:11;10.10;99.90
25280;DHT22;13225;47.804;12.116;2023-03-23T02:04:38;10.10;99.90
25280;DHT22;13225;47.804;12.116;2023-03-23T02:07:04;10.10;99.90
25280;DHT22;13225;47.804;12.116;2023-03-23T02:09:29;10.10;99.90
25280;DHT22;13225;47.804;12.116;2023-03-23T02:11:56;10.00;99.90
25280;DHT22;13225;47.804;12.116;2023-03-23T02:14:23;10.00;99.90
25280;DHT22;13225;47.804;12.116;2023-03-23T02:16:58;10.00;99.90
25280;DHT22;13225;47.804;12.116;2023-03-23T02:30:30;9.80;99.90
25280;DHT22;13225;47.804;12.116;2023-03-23T02:33:34;9.80;99.90
25280;DHT22;13225;47.804;12.116;2023-03-23T02:38:41;9.80;99.90
25280;DHT22;13225;47.804;12.116;2023-03-23T02:41:10;9.90;99.90
25280;DHT22;13225;47.804;12.116;2023-03-23T02:43:41;9.90;99.90
25280;DHT22;13225;47.804;12.116;2023-03-23T02:46:09;10.00;99.90
25280;DHT22;13225;47.804;12.116;2023-03-23T02:48:36;10.10;99.90
25280;DHT22;13225;47.804;12.116;2023-03-23T02:51:04;10.20;99.90
25280;DHT22;13225;47.804;12.116;2023-03-23T02:53:34;10.20;99.90
25280;DHT22;13225;47.804;12.116;2023-03-23T02:56:02;10.20;99.90
25280;DHT22;13225;47.804;12.116;2023-03-23T02:58:30;10.20;99.90
25280;DHT22;13225;47.804;12.116;2023-03-23T03:00:56;10.10;99.90
25280;DHT22;13225;47.804;12.116;2023-03-23T03:03:27;10.20;99.90
25280;DHT22;13225;47.804;12.116;2023-03-23T03:11:12;10.10;99.90
25280;DHT22;13225;47.804;12.116;2023-03-23T03:14:04;10.10;99.90
25280;DHT22;13225;47.804;12.116;2023-03-23T03:16:52;10.10;99.90
25280;DHT22;13225;47.804;12.116;2023-03-23T03:19:29;9.90;99.90
25280;DHT22;13225;47.804;12.116;2023-03-23T03:21:58;9.80;99.90
25280;DHT22;13225;47.804;12.116;2023-03-23T03:24:27;9.80;99.90
25280;DHT22;13225;47.804;12.116;2023-03-23T03:26:55;9.80;99.90
25280;DHT22;13225;47.804;12.116;2023-03-23T03:29:26;9.80;99.90
25280;DHT22;13225;47.804;12.116;2023-03-23T03:31:55;9.80;99.90
25280;DHT22;13225;47.804;12.116;2023-03-23T03:34:22;9.80;99.90
25280;DHT22;13225;47.804;12.116;2023-03-23T03:36:51;9.80;99.90
25280;DHT22;13225;47.804;12.116;2023-03-23T03:39:18;9.80;99.90
25280;DHT22;13225;47.804;12.116;2023-03-23T03:41:46;9.80;99.90
25280;DHT22;13225;47.804;12.116;2023-03-23T03:44:12;9.80;99.90
25280;DHT22;13225;47.804;12.116;2023-03-23T03:46:37;9.70;99.90
25280;DHT22;13225;47.804;12.116;2023-03-23T03:49:05;9.70;99.90
25280;DHT22;13225;47.804;12.116;2023-03-23T03:51:33;9.60;99.90
25280;DHT22;13225;47.804;12.116;2023-03-23T03:53:59;9.60;99.90
25280;DHT22;13225;47.804;12.116;2023-03-23T03:56:25;9.50;99.90
25280;DHT22;13225;47.804;12.116;2023-03-23T03:58:51;9.60;99.90
25280;DHT22;13225;47.804;12.116;2023-03-23T04:01:20;9.50;99.90
25280;DHT22;13225;47.804;12.116;2023-03-23T04:03:50;9.40;99.90
25280;DHT22;13225;47.804;12.116;2023-03-23T04:06:17;9.30;99.90
25280;DHT22;13225;47.804;12.116;2023-03-23T04:08:43;9.30;99.90
25280;DHT22;13225;47.804;12.116;2023-03-23T04:11:11;9.20;99.90
25280;DHT22;13225;47.804;12.116;2023-03-23T04:13:37;9.20;99.90
25280;DHT22;13225;47.804;12.116;2023-03-23T04:16:04;9.20;99.90
25280;DHT22;13225;47.804;12.116;2023-03-23T04:18:30;9.20;99.90
25280;DHT22;13225;47.804;12.116;2023-03-23T04:20:59;9.20;99.90
25280;DHT22;13225;47.804;12.116;2023-03-23T04:23:29;9.20;99.90
25280;DHT22;13225;47.804;12.116;2023-03-23T04:25:58;9.20;99.90
25280;DHT22;13225;47.804;12.116;2023-03-23T04:28:25;9.30;99.90
25280;DHT22;13225;47.804;12.116;2023-03-23T04:30:52;9.30;99.90
25280;DHT22;13225;47.804;12.116;2023-03-23T04:33:22;9.20;99.90
25280;DHT22;13225;47.804;12.116;2023-03-23T04:35:51;9.20;99.90
25280;DHT22;13225;47.804;12.116;2023-03-23T04:38:17;9.20;99.90
25280;DHT22;13225;47.804;12.116;2023-03-23T04:40:47;9.10;99.90
25280;DHT22;13225;47.804;12.116;2023-03-23T04:43:13;9.00;99.90
25280;DHT22;13225;47.804;12.116;2023-03-23T04:45:40;9.10;99.90
25280;DHT22;13225;47.804;12.116;2023-03-23T04:48:10;9.10;99.90
25280;DHT22;13225;47.804;12.116;2023-03-23T04:50:37;9.10;99.90
25280;DHT22;13225;47.804;12.116;2023-03-23T04:53:04;9.10;99.90
25280;DHT22;13225;47.804;12.116;2023-03-23T04:55:31;9.10;99.90
25280;DHT22;13225;47.804;12.116;2023-03-23T04:57:57;9.10;99.90
25280;DHT22;13225;47.804;12.116;2023-03-23T05:00:26;9.20;99.90
25280;DHT22;13225;47.804;12.116;2023-03-23T05:02:52;9.10;99.90
25280;DHT22;13225;47.804;12.116;2023-03-23T05:05:19;9.10;99.90
25280;DHT22;13225;47.804;12.116;2023-03-23T05:07:45;9.10;99.90
25280;DHT22;13225;47.804;12.116;2023-03-23T05:10:13;9.10;99.90
25280;DHT22;13225;47.804;12.116;2023-03-23T05:12:39;9.20;99.90
25280;DHT22;13225;47.804;12.116;2023-03-23T05:15:06;9.10;99.90
25280;DHT22;13225;47.804;12.116;2023-03-23T05:17:32;9.10;99.90
25280;DHT22;13225;47.804;12.116;2023-03-23T05:19:59;9.20;99.90
25280;DHT22;13225;47.804;12.116;2023-03-23T05:22:27;9.10;99.90
25280;DHT22;13225;47.804;12.116;2023-03-23T05:24:52;9.20;99.90
25280;DHT22;13225;47.804;12.116;2023-03-23T05:27:18;9.20;99.90
25280;DHT22;13225;47.804;12.116;2023-03-23T05:29:47;9.20;99.90
25280;DHT22;13225;47.804;12.116;2023-03-23T05:32:17;9.30;99.90
25280;DHT22;13225;47.804;12.116;2023-03-23T05:34:44;9.40;99.90
25280;DHT22;13225;47.804;12.116;2023-03-23T05:37:10;9.50;99.90
25280;DHT22;13225;47.804;12.116;2023-03-23T05:39:37;9.40;99.90
25280;DHT22;13225;47.804;12.116;2023-03-23T05:42:03;9.50;99.90
25280;DHT22;13225;47.804;12.116;2023-03-23T05:44:29;9.50;99.90
25280;DHT22;13225;47.804;12.116;2023-03-23T05:46:55;9.60;99.90
25280;DHT22;13225;47.804;12.116;2023-03-23T05:49:21;9.60;99.90
25280;DHT22;13225;47.804;12.116;2023-03-23T05:51:47;9.60;99.90
25280;DHT22;13225;47.804;12.116;2023-03-23T05:54:15;9.60;99.90
25280;DHT22;13225;47.804;12.116;2023-03-23T05:56:42;9.70;99.90
25280;DHT22;13225;47.804;12.116;2023-03-23T05:59:09;9.70;99.90
25280;DHT22;13225;47.804;12.116;2023-03-23T06:01:36;9.80;99.90
25280;DHT22;13225;47.804;12.116;2023-03-23T06:04:02;9.90;99.90
25280;DHT22;13225;47.804;12.116;2023-03-23T06:06:29;10.00;99.90
25280;DHT22;13225;47.804;12.116;2023-03-23T06:08:56;10.00;99.90
25280;DHT22;13225;47.804;12.116;2023-03-23T06:11:23;10.10;99.90
25280;DHT22;13225;47.804;12.116;2023-03-23T06:13:49;10.10;99.90
25280;DHT22;13225;47.804;12.116;2023-03-23T06:16:15;10.20;99.90
25280;DHT22;13225;47.804;12.116;2023-03-23T06:18:41;10.20;99.90
25280;DHT22;13225;47.804;12.116;2023-03-23T06:21:08;10.30;99.90
25280;DHT22;13225;47.804;12.116;2023-03-23T06:23:34;10.30;99.90
25280;DHT22;13225;47.804;12.116;2023-03-23T06:26:02;10.30;99.90
25280;DHT22;13225;47.804;12.116;2023-03-23T06:28:29;10.40;99.90
25280;DHT22;13225;47.804;12.116;2023-03-23T06:30:54;10.40;99.90
25280;DHT22;13225;47.804;12.116;2023-03-23T06:33:20;10.40;99.90
25280;DHT22;13225;47.804;12.116;2023-03-23T06:35:46;10.40;99.90
25280;DHT22;13225;47.804;12.116;2023-03-23T06:38:13;10.50;99.90
25280;DHT22;13225;47.804;12.116;2023-03-23T06:40:39;10.50;99.90
25280;DHT22;13225;47.804;12.116;2023-03-23T06:43:05;10.50;99.90
25280;DHT22;13225;47.804;12.116;2023-03-23T06:45:31;10.60;99.90
25280;DHT22;13225;47.804;12.116;2023-03-23T06:47:56;10.60;99.90
25280;DHT22;13225;47.804;12.116;2023-03-23T06:50:22;10.60;99.90
25280;DHT22;13225;47.804;12.116;2023-03-23T06:52:50;10.60;99.90
25280;DHT22;13225;47.804;12.116;2023-03-23T06:55:16;10.60;99.90
25280;DHT22;13225;47.804;12.116;2023-03-23T06:57:43;10.60;99.90
25280;DHT22;13225;47.804;12.116;2023-03-23T07:00:11;10.70;99.90
25280;DHT22;13225;47.804;12.116;2023-03-23T07:02:39;10.70;99.90
25280;DHT22;13225;47.804;12.116;2023-03-23T07:05:05;10.70;99.90
25280;DHT22;13225;47.804;12.116;2023-03-23T07:07:30;10.70;99.90
25280;DHT22;13225;47.804;12.116;2023-03-23T07:09:56;10.70;99.90
25280;DHT22;13225;47.804;12.116;2023-03-23T07:12:23;10.70;99.90
25280;DHT22;13225;47.804;12.116;2023-03-23T07:14:49;10.70;99.90
25280;DHT22;13225;47.804;12.116;2023-03-23T07:17:15;10.60;99.90
25280;DHT22;13225;47.804;12.116;2023-03-23T07:19:40;10.70;99.90
25280;DHT22;13225;47.804;12.116;2023-03-23T07:22:07;10.70;99.90
25280;DHT22;13225;47.804;12.116;2023-03-23T07:24:33;10.70;99.90
25280;DHT22;13225;47.804;12.116;2023-03-23T07:26:59;10.80;99.90
25280;DHT22;13225;47.804;12.116;2023-03-23T07:29:25;10.90;99.90
25280;DHT22;13225;47.804;12.116;2023-03-23T07:31:52;10.90;99.90
25280;DHT22;13225;47.804;12.116;2023-03-23T07:34:18;10.90;99.90
25280;DHT22;13225;47.804;12.116;2023-03-23T07:36:45;10.80;99.90
25280;DHT22;13225;47.804;12.116;2023-03-23T07:39:11;10.90;99.90
25280;DHT22;13225;47.804;12.116;2023-03-23T07:41:37;10.90;99.90
25280;DHT22;13225;47.804;12.116;2023-03-23T07:44:03;11.00;99.90
25280;DHT22;13225;47.804;12.116;2023-03-23T07:46:30;11.00;99.90
25280;DHT22;13225;47.804;12.116;2023-03-23T07:48:56;11.10;99.90
25280;DHT22;13225;47.804;12.116;2023-03-23T07:51:22;11.10;99.90
25280;DHT22;13225;47.804;12.116;2023-03-23T07:53:48;11.10;99.90
25280;DHT22;13225;47.804;12.116;2023-03-23T07:56:15;11.10;99.90
25280;DHT22;13225;47.804;12.116;2023-03-23T07:58:47;11.10;99.90
25280;DHT22;13225;47.804;12.116;2023-03-23T08:01:13;11.20;99.90
25280;DHT22;13225;47.804;12.116;2023-03-23T08:03:39;11.30;99.90
25280;DHT22;13225;47.804;12.116;2023-03-23T08:06:05;11.50;99.90
25280;DHT22;13225;47.804;12.116;2023-03-23T08:08:31;11.50;99.90
25280;DHT22;13225;47.804;12.116;2023-03-23T08:10:58;11.70;99.90
25280;DHT22;13225;47.804;12.116;2023-03-23T08:13:24;11.90;99.90
25280;DHT22;13225;47.804;12.116;2023-03-23T08:15:50;12.00;99.90
25280;DHT22;13225;47.804;12.116;2023-03-23T08:18:16;12.10;99.90
25280;DHT22;13225;47.804;12.116;2023-03-23T08:20:43;12.30;99.90
25280;DHT22;13225;47.804;12.116;2023-03-23T08:23:10;12.50;99.90
25280;DHT22;13225;47.804;12.116;2023-03-23T08:25:36;12.90;99.90
25280;DHT22;13225;47.804;12.116;2023-03-23T08:28:03;13.10;99.90
25280;DHT22;13225;47.804;12.116;2023-03-23T08:30:29;13.10;99.90
25280;DHT22;13225;47.804;12.116;2023-03-23T08:32:57;13.30;99.90
25280;DHT22;13225;47.804;12.116;2023-03-23T08:35:23;13.40;99.90
25280;DHT22;13225;47.804;12.116;2023-03-23T08:37:49;13.70;99.90
25280;DHT22;13225;47.804;12.116;2023-03-23T08:40:17;13.80;99.90
25280;DHT22;13225;47.804;12.116;2023-03-23T08:42:45;13.40;99.90
25280;DHT22;13225;47.804;12.116;2023-03-23T08:45:13;13.40;99.90
25280;DHT22;13225;47.804;12.116;2023-03-23T08:47:40;13.50;99.90
25280;DHT22;13225;47.804;12.116;2023-03-23T08:50:07;13.70;99.90
25280;DHT22;13225;47.804;12.116;2023-03-23T08:52:34;13.80;99.90
25280;DHT22;13225;47.804;12.116;2023-03-23T08:54:59;13.60;99.90
25280;DHT22;13225;47.804;12.116;2023-03-23T08:57:26;13.60;99.90
25280;DHT22;13225;47.804;12.116;2023-03-23T08:59:51;13.80;99.90
25280;DHT22;13225;47.804;12.116;2023-03-23T09:02:20;14.00;99.90
25280;DHT22;13225;47.804;12.116;2023-03-23T09:04:45;14.20;99.90
25280;DHT22;13225;47.804;12.116;2023-03-23T09:07:12;14.40;99.90
25280;DHT22;13225;47.804;12.116;2023-03-23T09:09:40;14.60;99.90
25280;DHT22;13225;47.804;12.116;2023-03-23T09:12:07;14.80;99.90
25280;DHT22;13225;47.804;12.116;2023-03-23T09:14:34;15.00;99.90
25280;DHT22;13225;47.804;12.116;2023-03-23T09:17:00;15.00;99.90
25280;DHT22;13225;47.804;12.116;2023-03-23T09:19:26;14.80;99.90
25280;DHT22;13225;47.804;12.116;2023-03-23T09:21:52;14.70;99.90
25280;DHT22;13225;47.804;12.116;2023-03-23T09:24:17;14.80;99.90
25280;DHT22;13225;47.804;12.116;2023-03-23T09:26:44;15.10;99.90
25280;DHT22;13225;47.804;12.116;2023-03-23T09:29:10;15.30;99.90
25280;DHT22;13225;47.804;12.116;2023-03-23T09:31:38;15.60;99.90
25280;DHT22;13225;47.804;12.116;2023-03-23T09:34:05;15.90;99.90
25280;DHT22;13225;47.804;12.116;2023-03-23T09:36:32;16.10;99.90
25280;DHT22;13225;47.804;12.116;2023-03-23T09:38:58;16.30;99.90
25280;DHT22;13225;47.804;12.116;2023-03-23T09:47:14;16.00;99.90
25280;DHT22;13225;47.804;12.116;2023-03-23T09:49:53;16.30;99.90
25280;DHT22;13225;47.804;12.116;2023-03-23T09:52:20;16.50;99.90
25280;DHT22;13225;47.804;12.116;2023-03-23T09:54:49;16.20;99.90
25280;DHT22;13225;47.804;12.116;2023-03-23T10:00:16;16.00;99.90
25280;DHT22;13225;47.804;12.116;2023-03-23T10:02:49;16.00;99.90
25280;DHT22;13225;47.804;12.116;2023-03-23T10:05:31;16.00;99.90
25280;DHT22;13225;47.804;12.116;2023-03-23T10:07:58;16.20;99.90
25280;DHT22;13225;47.804;12.116;2023-03-23T10:10:33;16.00;99.90
25280;DHT22;13225;47.804;12.116;2023-03-23T10:13:27;16.00;99.90
25280;DHT22;13225;47.804;12.116;2023-03-23T10:15:56;16.20;99.90
25280;DHT22;13225;47.804;12.116;2023-03-23T10:21:21;16.30;99.90
25280;DHT22;13225;47.804;12.116;2023-03-23T10:29:28;16.80;99.90
25280;DHT22;13225;47.804;12.116;2023-03-23T10:32:19;16.70;99.90
25280;DHT22;13225;47.804;12.116;2023-03-23T10:35:07;16.80;99.90
25280;DHT22;13225;47.804;12.116;2023-03-23T10:37:39;17.20;99.90
25280;DHT22;13225;47.804;12.116;2023-03-23T10:40:16;17.40;99.90
25280;DHT22;13225;47.804;12.116;2023-03-23T10:42:42;17.30;99.90
25280;DHT22;13225;47.804;12.116;2023-03-23T10:50:26;17.90;99.90
25280;DHT22;13225;47.804;12.116;2023-03-23T10:52:54;17.80;99.90
25280;DHT22;13225;47.804;12.116;2023-03-23T10:55:40;17.70;99.90
25280;DHT22;13225;47.804;12.116;2023-03-23T10:58:11;17.70;99.90
25280;DHT22;13225;47.804;12.116;2023-03-23T11:00:45;17.60;99.90
25280;DHT22;13225;47.804;12.116;2023-03-23T11:06:03;17.40;99.90
25280;DHT22;13225;47.804;12.116;2023-03-23T11:08:36;17.40;99.90
25280;DHT22;13225;47.804;12.116;2023-03-23T11:11:20;17.40;99.90
25280;DHT22;13225;47.804;12.116;2023-03-23T11:13:48;17.50;99.90
25280;DHT22;13225;47.804;12.116;2023-03-23T11:16:25;17.90;99.90
25280;DHT22;13225;47.804;12.116;2023-03-23T11:18:51;18.00;99.90
25280;DHT22;13225;47.804;12.116;2023-03-23T11:21:19;18.00;99.90
25280;DHT22;13225;47.804;12.116;2023-03-23T11:23:57;17.90;99.90
25280;DHT22;13225;47.804;12.116;2023-03-23T11:29:14;18.10;99.90
25280;DHT22;13225;47.804;12.116;2023-03-23T11:31:50;18.20;99.90
25280;DHT22;13225;47.804;12.116;2023-03-23T11:34:25;18.20;99.90
25280;DHT22;13225;47.804;12.116;2023-03-23T11:36:58;18.30;99.90
25280;DHT22;13225;47.804;12.116;2023-03-23T11:39:34;18.30;99.90
25280;DHT22;13225;47.804;12.116;2023-03-23T11:42:11;18.30;99.90
25280;DHT22;13225;47.804;12.116;2023-03-23T11:44:42;18.40;99.90
25280;DHT22;13225;47.804;12.116;2023-03-23T11:47:36;18.40;99.90
25280;DHT22;13225;47.804;12.116;2023-03-23T11:50:29;18.70;99.90
25280;DHT22;13225;47.804;12.116;2023-03-23T11:53:13;18.40;99.90
25280;DHT22;13225;47.804;12.116;2023-03-23T11:58:14;18.40;99.90
25280;DHT22;13225;47.804;12.116;2023-03-23T12:15:21;19.40;99.90
25280;DHT22;13225;47.804;12.116;2023-03-23T12:26:07;20.30;99.90
25280;DHT22;13225;47.804;12.116;2023-03-23T12:29:02;20.30;99.90
25280;DHT22;13225;47.804;12.116;2023-03-23T12:31:55;20.80;99.70
25280;DHT22;13225;47.804;12.116;2023-03-23T12:34:38;20.60;99.90
25280;DHT22;13225;47.804;12.116;2023-03-23T12:37:52;20.80;98.90
25280;DHT22;13225;47.804;12.116;2023-03-23T12:40:23;20.80;98.30
25280;DHT22;13225;47.804;12.116;2023-03-23T12:42:57;20.50;98.10
25280;DHT22;13225;47.804;12.116;2023-03-23T12:48:18;20.50;97.00
25280;DHT22;13225;47.804;12.116;2023-03-23T12:53:32;20.50;98.00
25280;DHT22;13225;47.804;12.116;2023-03-23T12:56:19;20.50;97.60
25280;DHT22;13225;47.804;12.116;2023-03-23T12:58:52;20.90;95.40
25280;DHT22;13225;47.804;12.116;2023-03-23T13:01:25;21.20;95.40
25280;DHT22;13225;47.804;12.116;2023-03-23T13:04:02;20.90;93.10
25280;DHT22;13225;47.804;12.116;2023-03-23T13:06:34;20.70;94.20
25280;DHT22;13225;47.804;12.116;2023-03-23T13:09:24;20.90;92.70
25280;DHT22;13225;47.804;12.116;2023-03-23T13:11:49;20.80;93.30
25280;DHT22;13225;47.804;12.116;2023-03-23T13:28:16;20.60;93.90
25280;DHT22;13225;47.804;12.116;2023-03-23T13:31:13;20.50;93.60
25280;DHT22;13225;47.804;12.116;2023-03-23T13:33:52;20.30;95.70
25280;DHT22;13225;47.804;12.116;2023-03-23T13:38:58;20.40;95.70
25280;DHT22;13225;47.804;12.116;2023-03-23T13:41:25;20.70;95.20
25280;DHT22;13225;47.804;12.116;2023-03-23T13:43:52;20.50;96.20
25280;DHT22;13225;47.804;12.116;2023-03-23T13:46:30;20.40;95.70
25280;DHT22;13225;47.804;12.116;2023-03-23T13:49:19;20.00;96.50
25280;DHT22;13225;47.804;12.116;2023-03-23T13:51:57;20.20;96.50
25280;DHT22;13225;47.804;12.116;2023-03-23T13:54:45;20.50;95.60
25280;DHT22;13225;47.804;12.116;2023-03-23T13:57:35;20.80;94.80
25280;DHT22;13225;47.804;12.116;2023-03-23T14:03:01;20.50;94.00
25280;DHT22;13225;47.804;12.116;2023-03-23T14:05:50;20.30;95.30
25280;DHT22;13225;47.804;12.116;2023-03-23T14:11:09;20.20;95.30
25280;DHT22;13225;47.804;12.116;2023-03-23T14:13:42;20.50;94.20
25280;DHT22;13225;47.804;12.116;2023-03-23T14:16:21;20.30;94.30
25280;DHT22;13225;47.804;12.116;2023-03-23T14:18:54;20.50;94.10
25280;DHT22;13225;47.804;12.116;2023-03-23T14:21:41;20.20;92.50
25280;DHT22;13225;47.804;12.116;2023-03-23T14:24:20;19.90;92.90
25280;DHT22;13225;47.804;12.116;2023-03-23T14:26:48;20.00;92.10
25280;DHT22;13225;47.804;12.116;2023-03-23T14:29:14;20.20;91.20
25280;DHT22;13225;47.804;12.116;2023-03-23T14:31:40;20.60;91.00
25280;DHT22;13225;47.804;12.116;2023-03-23T14:34:15;21.40;87.00
25280;DHT22;13225;47.804;12.116;2023-03-23T14:36:42;21.50;89.40
25280;DHT22;13225;47.804;12.116;2023-03-23T14:41:37;20.60;89.60
25280;DHT22;13225;47.804;12.116;2023-03-23T14:44:05;21.00;92.80
25280;DHT22;13225;47.804;12.116;2023-03-23T14:46:32;21.30;90.90
25280;DHT22;13225;47.804;12.116;2023-03-23T14:49:01;21.30;91.00
25280;DHT22;13225;47.804;12.116;2023-03-23T14:51:27;21.30;88.40
25280;DHT22;13225;47.804;12.116;2023-03-23T14:53:53;21.00;91.40
25280;DHT22;13225;47.804;12.116;2023-03-23T14:56:21;21.20;92.10
25280;DHT22;13225;47.804;12.116;2023-03-23T14:59:03;21.60;90.50
25280;DHT22;13225;47.804;12.116;2023-03-23T15:01:31;21.80;90.10
25280;DHT22;13225;47.804;12.116;2023-03-23T15:04:08;21.10;90.30
25280;DHT22;13225;47.804;12.116;2023-03-23T15:06:37;20.70;90.30
25280;DHT22;13225;47.804;12.116;2023-03-23T15:09:17;20.50;91.50
25280;DHT22;13225;47.804;12.116;2023-03-23T15:11:59;20.10;92.40
25280;DHT22;13225;47.804;12.116;2023-03-23T15:14:32;19.70;92.50
25280;DHT22;13225;47.804;12.116;2023-03-23T15:17:00;19.70;93.40
25280;DHT22;13225;47.804;12.116;2023-03-23T15:19:39;19.40;94.00
25280;DHT22;13225;47.804;12.116;2023-03-23T15:22:11;19.50;93.60
25280;DHT22;13225;47.804;12.116;2023-03-23T15:24:40;19.50;93.60
25280;DHT22;13225;47.804;12.116;2023-03-23T15:29:31;19.70;93.40
25280;DHT22;13225;47.804;12.116;2023-03-23T15:31:57;20.00;93.30
25280;DHT22;13225;47.804;12.116;2023-03-23T15:34:35;20.00;94.00
25280;DHT22;13225;47.804;12.116;2023-03-23T15:37:16;19.90;93.90
25280;DHT22;13225;47.804;12.116;2023-03-23T15:39:44;20.00;93.90
25280;DHT22;13225;47.804;12.116;2023-03-23T15:42:25;19.70;94.20
25280;DHT22;13225;47.804;12.116;2023-03-23T15:50:31;19.10;95.00
25280;DHT22;13225;47.804;12.116;2023-03-23T15:52:57;19.00;96.50
25280;DHT22;13225;47.804;12.116;2023-03-23T15:55:25;18.90;95.40
25280;DHT22;13225;47.804;12.116;2023-03-23T15:57:53;18.80;95.20
25280;DHT22;13225;47.804;12.116;2023-03-23T16:00:20;18.60;96.90
25280;DHT22;13225;47.804;12.116;2023-03-23T16:02:55;18.30;96.90
25280;DHT22;13225;47.804;12.116;2023-03-23T16:05:21;18.30;96.80
25280;DHT22;13225;47.804;12.116;2023-03-23T16:07:47;18.00;97.60
25280;DHT22;13225;47.804;12.116;2023-03-23T16:10:17;18.10;97.40
25280;DHT22;13225;47.804;12.116;2023-03-23T16:12:43;17.90;98.20
25280;DHT22;13225;47.804;12.116;2023-03-23T16:15:09;17.80;99.70
25280;DHT22;13225;47.804;12.116;2023-03-23T16:17:35;17.70;99.90
25280;DHT22;13225;47.804;12.116;2023-03-23T16:20:01;17.50;99.90
25280;DHT22;13225;47.804;12.116;2023-03-23T16:22:28;17.40;99.90
25280;DHT22;13225;47.804;12.116;2023-03-23T16:24:54;17.20;99.90
25280;DHT22;13225;47.804;12.116;2023-03-23T16:27:19;17.00;99.90
25280;DHT22;13225;47.804;12.116;2023-03-23T16:29:46;17.00;99.90
25280;DHT22;13225;47.804;12.116;2023-03-23T16:32:12;16.90;99.90
25280;DHT22;13225;47.804;12.116;2023-03-23T16:34:38;16.90;99.90
25280;DHT22;13225;47.804;12.116;2023-03-23T16:37:03;16.80;99.90
25280;DHT22;13225;47.804;12.116;2023-03-23T16:39:31;16.70;99.90
25280;DHT22;13225;47.804;12.116;2023-03-23T16:41:56;16.70;99.90
25280;DHT22;13225;47.804;12.116;2023-03-23T16:44:22;16.60;99.90
25280;DHT22;13225;47.804;12.116;2023-03-23T16:46:47;16.60;99.90
25280;DHT22;13225;47.804;12.116;2023-03-23T16:49:13;16.50;99.90
25280;DHT22;13225;47.804;12.116;2023-03-23T16:51:38;16.50;99.90
25280;DHT22;13225;47.804;12.116;2023-03-23T16:54:04;16.40;99.90
25280;DHT22;13225;47.804;12.116;2023-03-23T16:56:29;16.20;99.90
25280;DHT22;13225;47.804;12.116;2023-03-23T16:58:55;16.20;99.90
25280;DHT22;13225;47.804;12.116;2023-03-23T17:01:21;16.10;99.90
25280;DHT22;13225;47.804;12.116;2023-03-23T17:03:46;16.00;99.90
25280;DHT22;13225;47.804;12.116;2023-03-23T17:06:12;15.90;99.90
25280;DHT22;13225;47.804;12.116;2023-03-23T17:08:37;15.80;99.90
25280;DHT22;13225;47.804;12.116;2023-03-23T17:11:03;15.80;99.90
25280;DHT22;13225;47.804;12.116;2023-03-23T17:13:29;15.80;99.90
25280;DHT22;13225;47.804;12.116;2023-03-23T17:15:55;15.70;99.90
25280;DHT22;13225;47.804;12.116;2023-03-23T17:18:22;15.70;99.90
25280;DHT22;13225;47.804;12.116;2023-03-23T17:20:51;15.70;99.90
25280;DHT22;13225;47.804;12.116;2023-03-23T17:23:16;15.60;99.90
25280;DHT22;13225;47.804;12.116;2023-03-23T17:25:45;15.60;99.90
25280;DHT22;13225;47.804;12.116;2023-03-23T17:28:11;15.50;99.90